Time;durP1;ratioP1;P1;durP2;ratioP2;P2;SDS_P1;SDS_P2;PMS_P1;PMS_P2;Temp;Humidity;BMP_temperature;BMP_pressure;BME280_temperature;BME280_humidity;BME280_pressure;Samples;Min_cycle;Max_cycle;Signal;HPM_P1;HPM_P2
2024/02/05 00:00:06;;;;;;;2.47;0.88;;;21.80;41.40;;;;;;5135225;27;20046;-36
2024/02/05 00:02:32;;;;;;;1.35;0.75;;;21.80;41.40;;;;;;5136401;27;20057;-33
2024/02/05 00:04:58;;;;;;;0.63;0.60;;;21.70;41.40;;;;;;5133220;27;20039;-33
2024/02/05 00:07:24;;;;;;;1.40;0.80;;;21.70;41.30;;;;;;5136057;27;20552;-34
2024/02/05 00:09:52;;;;;;;1.20;0.50;;;21.70;41.30;;;;;;5135172;27;20035;-36
2024/02/05 00:12:18;;;;;;;0.93;0.75;;;21.80;41.40;;;;;;5116092;27;20039;-31
2024/02/05 00:14:44;;;;;;;2.08;0.90;;;21.80;41.20;;;;;;5136485;27;20024;-33
2024/02/05 00:17:11;;;;;;;1.75;0.88;;;21.80;41.30;;;;;;5135262;27;20042;-32
2024/02/05 00:19:37;;;;;;;0.93;0.70;;;21.70;41.10;;;;;;5136328;27;20041;-33
2024/02/05 00:22:03;;;;;;;1.05;0.70;;;21.70;41.10;;;;;;5133445;27;20062;-34
2024/02/05 00:24:30;;;;;;;0.90;0.73;;;21.70;41.10;;;;;;5133871;27;20043;-35
2024/02/05 00:26:56;;;;;;;0.70;0.65;;;21.80;41.10;;;;;;5131943;27;20362;-34
2024/02/05 00:29:22;;;;;;;0.85;0.70;;;21.80;41.10;;;;;;5132547;27;20023;-37
2024/02/05 00:31:48;;;;;;;1.50;0.95;;;21.70;41.00;;;;;;5134702;27;20031;-34
2024/02/05 00:34:15;;;;;;;5.25;3.85;;;21.70;41.00;;;;;;5135820;27;20027;-31
2024/02/05 00:36:42;;;;;;;10.93;7.05;;;21.70;40.90;;;;;;5130925;27;20024;-35
2024/02/05 00:39:10;;;;;;;14.68;8.93;;;21.70;41.10;;;;;;5132932;27;20042;-36
2024/02/05 00:41:39;;;;;;;15.32;8.85;;;21.80;41.10;;;;;;5139329;27;20035;-35
2024/02/05 00:44:05;;;;;;;18.20;10.50;;;21.80;41.10;;;;;;5131285;27;20055;-35
2024/02/05 00:46:31;;;;;;;22.40;11.35;;;21.80;41.30;;;;;;5131392;27;20027;-35
2024/02/05 00:48:59;;;;;;;24.23;11.82;;;21.80;41.50;;;;;;5128693;27;20028;-32
2024/02/05 00:51:25;;;;;;;;;;;21.80;41.60;;;;;;5132873;27;20150;-37
2024/02/05 00:53:51;;;;;;;24.40;12.73;;;21.80;41.50;;;;;;5137159;27;19919;-35
2024/02/05 00:56:17;;;;;;;21.00;11.70;;;21.80;41.50;;;;;;5133857;27;20034;-36
2024/02/05 00:58:43;;;;;;;21.27;12.07;;;21.80;41.50;;;;;;5139888;27;20030;-33
2024/02/05 01:01:10;;;;;;;25.13;11.90;;;21.80;41.60;;;;;;5130907;27;20028;-35
2024/02/05 01:03:38;;;;;;;24.33;11.10;;;21.80;41.70;;;;;;5126980;27;20028;-37
2024/02/05 01:06:04;;;;;;;17.33;9.52;;;21.80;41.70;;;;;;5133112;27;20039;-38
2024/02/05 01:08:31;;;;;;;17.73;9.40;;;21.80;41.60;;;;;;5128260;27;20028;-34
2024/02/05 01:10:57;;;;;;;15.80;8.93;;;21.90;41.50;;;;;;5130472;27;20591;-36
2024/02/05 01:13:24;;;;;;;15.15;8.68;;;21.90;41.50;;;;;;5129564;27;20026;-35
2024/02/05 01:15:51;;;;;;;13.82;8.40;;;21.90;41.50;;;;;;5131614;27;20084;-33
2024/02/05 01:18:17;;;;;;;13.43;8.07;;;21.80;41.50;;;;;;5132551;27;20027;-33
2024/02/05 01:20:43;;;;;;;13.88;6.88;;;21.80;41.60;;;;;;5114837;27;20066;-37
2024/02/05 01:23:10;;;;;;;9.60;6.25;;;21.90;41.50;;;;;;5138125;27;20022;-35
2024/02/05 01:25:36;;;;;;;9.10;6.50;;;21.90;41.50;;;;;;5129230;27;20044;-38
2024/02/05 01:28:03;;;;;;;10.98;6.50;;;21.90;41.40;;;;;;5142110;27;20273;-34
2024/02/05 01:30:29;;;;;;;8.98;5.80;;;21.90;41.40;;;;;;5135516;27;20041;-32
2024/02/05 01:32:56;;;;;;;7.50;4.90;;;21.80;41.40;;;;;;5136966;27;20030;-36
2024/02/05 01:35:22;;;;;;;10.10;4.95;;;21.80;41.40;;;;;;5133902;27;20980;-34
2024/02/05 01:37:48;;;;;;;7.10;4.75;;;21.90;41.40;;;;;;5130242;27;20035;-36
2024/02/05 01:40:15;;;;;;;7.47;4.68;;;21.90;41.40;;;;;;5130592;27;20792;-36
2024/02/05 01:42:41;;;;;;;7.55;4.53;;;21.90;41.30;;;;;;5131646;27;20035;-33
2024/02/05 01:45:09;;;;;;;7.43;4.55;;;21.90;41.30;;;;;;5128930;27;20038;-33
2024/02/05 01:47:36;;;;;;;5.00;3.67;;;21.80;41.30;;;;;;5138011;27;20031;-35
2024/02/05 01:50:03;;;;;;;5.70;3.38;;;21.80;41.40;;;;;;5134256;27;20046;-36
2024/02/05 01:52:29;;;;;;;4.57;3.10;;;21.80;41.30;;;;;;5151132;27;20031;-34
2024/02/05 01:54:55;;;;;;;5.18;3.30;;;21.90;41.40;;;;;;5114018;27;20041;-38
2024/02/05 01:57:21;;;;;;;5.78;3.40;;;21.90;41.30;;;;;;5139410;27;20030;-33
2024/02/05 01:59:48;;;;;;;5.43;3.00;;;21.90;41.30;;;;;;5115706;27;20036;-38
2024/02/05 02:02:14;;;;;;;4.18;2.67;;;21.80;41.30;;;;;;5140285;27;20039;-35
2024/02/05 02:04:40;;;;;;;3.40;2.72;;;21.80;41.40;;;;;;5132006;27;20053;-34
2024/02/05 02:07:06;;;;;;;4.35;2.80;;;21.90;41.40;;;;;;5131268;27;20031;-38
2024/02/05 02:09:32;;;;;;;4.47;2.30;;;21.90;41.40;;;;;;5135874;27;20024;-35
2024/02/05 02:11:58;;;;;;;2.70;2.10;;;21.90;41.40;;;;;;5135841;27;20038;-38
2024/02/05 02:14:25;;;;;;;3.78;2.22;;;21.90;41.40;;;;;;5131311;27;20024;-36
2024/02/05 02:16:51;;;;;;;3.33;2.35;;;21.80;41.40;;;;;;5138348;27;20035;-34
2024/02/05 02:19:42;;;;;;;2.53;1.70;;;21.80;41.40;;;;;;5137101;27;20023;-35
2024/02/05 02:22:36;;;;;;;3.25;1.83;;;21.90;41.50;;;;;;5106946;27;20056;-36
2024/02/05 02:25:02;;;;;;;3.28;1.90;;;21.90;41.40;;;;;;5132775;27;20031;-41
2024/02/05 02:27:29;;;;;;;2.00;1.53;;;21.90;41.40;;;;;;5137753;27;20097;-37
2024/02/05 02:29:55;;;;;;;2.33;1.67;;;21.90;41.50;;;;;;5114820;27;20999;-34
2024/02/05 02:32:57;;;;;;;1.80;1.40;;;21.80;41.50;;;;;;5106163;28;20039;-35
2024/02/05 02:35:35;;;;;;;2.10;1.65;;;21.90;41.50;;;;;;5078776;28;20044;-33
2024/02/05 02:38:20;;;;;;;2.75;2.00;;;21.90;41.50;;;;;;5062795;28;20040;-37
2024/02/05 02:40:47;;;;;;;2.00;1.58;;;21.90;41.50;;;;;;5070562;28;20024;-34
2024/02/05 02:43:14;;;;;;;2.00;1.65;;;21.90;41.50;;;;;;5073719;28;20136;-38
2024/02/05 02:45:40;;;;;;;1.98;1.33;;;21.80;41.50;;;;;;5079956;28;20160;-34
2024/02/05 02:48:06;;;;;;;1.60;1.27;;;21.80;41.50;;;;;;5084698;28;20050;-32
2024/02/05 02:50:32;;;;;;;1.57;1.33;;;21.80;41.50;;;;;;5078394;28;20780;-35
2024/02/05 02:52:58;;;;;;;1.92;1.30;;;21.90;41.60;;;;;;5061605;28;20304;-37
2024/02/05 02:55:25;;;;;;;2.70;1.23;;;21.90;41.60;;;;;;5078494;28;20138;-33
2024/02/05 02:57:51;;;;;;;1.65;1.05;;;21.90;41.60;;;;;;5082373;28;20028;-34
2024/02/05 03:00:17;;;;;;;1.83;1.25;;;21.90;41.60;;;;;;5079345;28;20152;-36
2024/02/05 03:02:43;;;;;;;1.17;1.07;;;21.80;41.50;;;;;;5078560;28;20128;-35
2024/02/05 03:05:09;;;;;;;1.42;1.10;;;21.90;41.60;;;;;;5072142;28;20032;-34
2024/02/05 03:07:36;;;;;;;1.30;1.05;;;21.90;41.60;;;;;;5071047;28;20060;-32
2024/02/05 03:10:05;;;;;;;2.15;1.30;;;21.90;41.50;;;;;;5114477;28;20062;-30
2024/02/05 03:12:34;;;;;;;1.27;1.10;;;21.90;41.60;;;;;;5129815;28;20116;-38
2024/02/05 03:15:01;;;;;;;1.30;1.20;;;21.80;42.20;;;;;;5132101;27;20033;-31
2024/02/05 03:17:27;;;;;;;1.33;0.95;;;21.80;41.60;;;;;;5134256;27;20472;-34
2024/02/05 03:19:53;;;;;;;1.27;1.17;;;21.80;41.60;;;;;;5134236;27;20057;-37
2024/02/05 03:22:20;;;;;;;0.93;0.83;;;21.90;41.60;;;;;;5136167;27;20042;-36
2024/02/05 03:24:46;;;;;;;1.50;0.93;;;21.90;41.50;;;;;;5138001;27;20023;-32
2024/02/05 03:27:14;;;;;;;1.90;1.07;;;21.90;41.60;;;;;;5134976;27;20023;-37
2024/02/05 03:29:41;;;;;;;1.40;0.93;;;21.80;41.60;;;;;;5134532;27;20050;-34
2024/02/05 03:32:07;;;;;;;;;;;21.80;41.50;;;;;;5135510;27;20047;-36
2024/02/05 03:34:34;;;;;;;1.55;0.90;;;21.90;41.60;;;;;;5133619;27;19933;-34
2024/02/05 03:37:00;;;;;;;1.17;1.02;;;21.90;41.60;;;;;;5138114;27;20035;-37
2024/02/05 03:39:26;;;;;;;1.98;1.02;;;21.90;41.60;;;;;;5135321;27;20092;-38
2024/02/05 03:41:53;;;;;;;1.25;0.70;;;21.90;41.60;;;;;;5131841;27;20062;-31
2024/02/05 03:44:19;;;;;;;1.02;0.88;;;21.80;41.60;;;;;;5130855;27;20059;-37
2024/02/05 03:46:45;;;;;;;1.00;0.88;;;21.80;41.50;;;;;;5130549;27;20057;-36
2024/02/05 03:49:11;;;;;;;0.85;0.82;;;21.90;41.60;;;;;;5133012;27;20036;-33
2024/02/05 03:51:37;;;;;;;1.10;0.77;;;21.90;41.50;;;;;;5139433;27;20454;-32
2024/02/05 03:54:07;;;;;;;0.75;0.73;;;21.90;41.50;;;;;;5134877;27;20046;-37
2024/02/05 03:56:33;;;;;;;1.00;0.90;;;21.90;41.60;;;;;;5131395;27;20084;-35
2024/02/05 03:58:59;;;;;;;0.85;0.70;;;21.80;41.60;;;;;;5134169;27;20223;-35
2024/02/05 04:01:26;;;;;;;0.68;0.60;;;21.80;41.60;;;;;;5131219;27;20065;-32
2024/02/05 04:03:52;;;;;;;2.05;0.70;;;21.90;41.60;;;;;;5135081;27;20031;-32
2024/02/05 04:06:19;;;;;;;0.80;0.73;;;21.90;41.60;;;;;;5134097;27;20062;-34
2024/02/05 04:08:45;;;;;;;;;;;21.90;41.60;;;;;;5133449;27;20037;-33
2024/02/05 04:11:11;;;;;;;1.05;0.73;;;21.80;41.50;;;;;;5133706;27;19915;-32
2024/02/05 04:13:37;;;;;;;0.90;0.80;;;21.80;41.60;;;;;;5135494;27;20498;-32
2024/02/05 04:16:07;;;;;;;0.65;0.63;;;21.80;41.50;;;;;;5136661;27;20035;-32
2024/02/05 04:18:33;;;;;;;1.33;0.77;;;21.90;41.60;;;;;;5135804;27;20601;-33
2024/02/05 04:21:03;;;;;;;1.13;0.77;;;21.90;41.50;;;;;;5137552;27;20042;-33
2024/02/05 04:23:30;;;;;;;0.65;0.60;;;21.90;41.50;;;;;;5135893;27;20831;-33
2024/02/05 04:25:56;;;;;;;0.95;0.70;;;21.80;41.50;;;;;;5135010;27;20027;-36
2024/02/05 04:28:23;;;;;;;0.90;0.70;;;21.80;41.50;;;;;;5115748;27;20939;-34
2024/02/05 04:30:50;;;;;;;1.27;0.80;;;21.80;41.40;;;;;;5136580;27;20309;-32
2024/02/05 04:33:16;;;;;;;0.77;0.75;;;21.90;41.60;;;;;;5135273;27;20092;-36
2024/02/05 04:35:42;;;;;;;0.93;0.60;;;21.90;41.50;;;;;;5134488;27;20126;-31
2024/02/05 04:38:08;;;;;;;1.10;0.82;;;21.90;41.40;;;;;;5128557;27;20027;-33
2024/02/05 04:40:34;;;;;;;0.80;0.60;;;21.90;41.40;;;;;;5129705;27;20038;-32
2024/02/05 04:43:01;;;;;;;1.15;0.60;;;21.80;41.40;;;;;;5139170;27;20023;-33
2024/02/05 04:45:27;;;;;;;0.80;0.60;;;21.80;41.50;;;;;;5135432;27;20053;-32
2024/02/05 04:47:53;;;;;;;0.50;0.50;;;21.90;41.50;;;;;;5132164;27;20065;-33
2024/02/05 04:50:19;;;;;;;1.08;0.70;;;21.90;41.50;;;;;;5142382;27;20027;-34
2024/02/05 04:52:47;;;;;;;0.85;0.60;;;21.90;41.40;;;;;;5136862;27;20125;-35
2024/02/05 04:55:13;;;;;;;2.78;0.70;;;21.90;41.40;;;;;;5133293;27;20031;-35
2024/02/05 04:57:46;;;;;;;1.17;0.70;;;21.80;41.50;;;;;;5135481;27;20043;-32
2024/02/05 05:00:12;;;;;;;1.27;0.68;;;21.80;41.30;;;;;;5137784;27;20050;-33
2024/02/05 05:02:39;;;;;;;2.78;0.90;;;21.90;41.40;;;;;;5116286;27;20034;-37
2024/02/05 05:05:05;;;;;;;1.27;0.70;;;21.90;41.40;;;;;;5136028;27;20023;-35
2024/02/05 05:07:31;;;;;;;0.80;0.70;;;21.90;41.40;;;;;;5134893;27;20050;-35
2024/02/05 05:09:57;;;;;;;1.25;0.75;;;21.90;41.30;;;;;;5131879;27;20287;-37
2024/02/05 05:12:24;;;;;;;0.90;0.75;;;21.80;41.40;;;;;;5133105;27;20026;-42
2024/02/05 05:14:50;;;;;;;0.80;0.60;;;21.80;41.40;;;;;;5132683;27;21116;-36
2024/02/05 05:17:17;;;;;;;0.52;0.50;;;21.90;41.40;;;;;;5132535;27;20055;-33
2024/02/05 05:19:43;;;;;;;1.08;0.70;;;21.90;41.40;;;;;;5134457;27;20041;-37
2024/02/05 05:22:09;;;;;;;2.90;0.70;;;21.90;41.30;;;;;;5134036;27;20044;-39
2024/02/05 05:24:36;;;;;;;4.28;0.70;;;21.90;41.20;;;;;;5131949;27;20069;-35
2024/02/05 05:27:02;;;;;;;0.63;0.60;;;21.80;41.40;;;;;;5134429;27;20022;-33
2024/02/05 05:29:28;;;;;;;1.00;0.80;;;21.80;41.30;;;;;;5135352;27;20079;-36
2024/02/05 05:31:54;;;;;;;0.85;0.70;;;21.90;41.40;;;;;;5134967;27;20030;-36
2024/02/05 05:34:21;;;;;;;0.93;0.60;;;21.90;41.30;;;;;;5132773;27;20035;-35
2024/02/05 05:36:47;;;;;;;0.77;0.60;;;21.90;41.20;;;;;;5133338;27;20177;-35
2024/02/05 05:39:13;;;;;;;0.47;0.43;;;21.80;41.10;;;;;;5133001;27;20062;-35
2024/02/05 05:41:39;;;;;;;0.77;0.60;;;21.80;41.00;;;;;;5132259;27;20027;-34
2024/02/05 05:44:05;;;;;;;1.52;0.75;;;21.80;41.10;;;;;;5133348;27;20046;-35
2024/02/05 05:46:32;;;;;;;0.70;0.65;;;21.90;41.30;;;;;;5125390;27;20031;-35
2024/02/05 05:48:58;;;;;;;0.68;0.68;;;21.90;41.30;;;;;;5128497;27;20039;-31
2024/02/05 05:51:24;;;;;;;0.93;0.57;;;21.90;41.30;;;;;;5129746;27;20035;-34
2024/02/05 05:53:50;;;;;;;1.23;0.80;;;21.90;41.30;;;;;;5125442;27;20047;-34
2024/02/05 05:56:16;;;;;;;1.33;0.63;;;21.90;41.90;;;;;;5126563;27;20498;-37
2024/02/05 05:58:42;;;;;;;0.60;0.60;;;21.90;41.40;;;;;;5127466;27;20029;-32
2024/02/05 06:01:08;;;;;;;0.70;0.60;;;21.90;41.40;;;;;;5124107;27;20087;-36
2024/02/05 06:03:36;;;;;;;0.90;0.60;;;21.90;41.30;;;;;;5126897;27;20038;-38
2024/02/05 06:06:04;;;;;;;1.33;0.70;;;21.90;41.30;;;;;;5127931;27;20035;-36
2024/02/05 06:08:31;;;;;;;0.77;0.77;;;21.90;41.30;;;;;;5128935;27;20032;-34
2024/02/05 06:10:57;;;;;;;0.70;0.70;;;21.90;41.30;;;;;;5129320;27;20561;-36
2024/02/05 06:13:23;;;;;;;0.80;0.70;;;21.90;41.30;;;;;;5138949;27;20035;-37
2024/02/05 06:15:49;;;;;;;0.82;0.60;;;21.90;41.30;;;;;;5133063;27;20303;-39
2024/02/05 06:18:16;;;;;;;0.63;0.60;;;21.90;41.30;;;;;;5130612;27;20024;-36
2024/02/05 06:20:42;;;;;;;0.77;0.70;;;21.90;41.20;;;;;;5133594;27;20113;-33
2024/02/05 06:23:08;;;;;;;0.60;0.50;;;21.90;41.20;;;;;;5130287;27;20108;-36
2024/02/05 06:25:34;;;;;;;0.80;0.70;;;21.90;41.30;;;;;;5131259;27;20295;-32
2024/02/05 06:28:00;;;;;;;2.25;0.65;;;21.90;41.30;;;;;;5133927;27;20063;-33
2024/02/05 06:30:27;;;;;;;0.80;0.68;;;21.90;41.30;;;;;;5129925;27;20036;-35
2024/02/05 06:32:53;;;;;;;0.90;0.50;;;21.90;41.20;;;;;;5113236;28;20157;-35
2024/02/05 06:35:19;;;;;;;0.60;0.60;;;21.90;41.20;;;;;;5136968;27;20031;-36
2024/02/05 06:37:45;;;;;;;1.15;0.70;;;21.90;41.20;;;;;;5133813;28;20027;-36
2024/02/05 06:40:13;;;;;;;1.10;0.65;;;21.90;41.20;;;;;;5131901;28;20050;-38
2024/02/05 06:42:39;;;;;;;0.75;0.50;;;21.90;41.20;;;;;;5135260;28;20062;-39
2024/02/05 06:45:07;;;;;;;1.52;0.70;;;21.90;41.30;;;;;;5138034;28;20024;-38
2024/02/05 06:47:33;;;;;;;0.93;0.73;;;21.90;41.20;;;;;;5130918;27;20028;-36
2024/02/05 06:50:00;;;;;;;0.73;0.60;;;21.90;41.20;;;;;;5136696;27;20745;-35
2024/02/05 06:52:26;;;;;;;0.77;0.52;;;21.90;41.20;;;;;;5133319;27;21066;-36
2024/02/05 06:54:52;;;;;;;0.80;0.80;;;21.90;41.20;;;;;;5140938;27;20059;-35
2024/02/05 06:57:19;;;;;;;1.40;0.70;;;21.90;41.30;;;;;;5111151;27;20176;-36
2024/02/05 06:59:45;;;;;;;2.63;0.70;;;21.90;41.30;;;;;;5141066;27;20036;-39
2024/02/05 07:02:13;;;;;;;1.15;0.82;;;21.90;41.30;;;;;;5137247;27;20023;-36
2024/02/05 07:04:39;;;;;;;0.90;0.68;;;21.90;41.30;;;;;;5142427;27;20114;-33
2024/02/05 07:07:05;;;;;;;1.10;0.60;;;21.90;41.30;;;;;;5136050;27;20026;-35
2024/02/05 07:09:31;;;;;;;1.13;0.80;;;21.80;41.20;;;;;;5135780;27;20035;-35
2024/02/05 07:11:57;;;;;;;0.65;0.63;;;21.90;41.30;;;;;;5136687;27;20035;-32
2024/02/05 07:14:24;;;;;;;0.70;0.60;;;21.90;41.30;;;;;;5135670;27;20027;-35
2024/02/05 07:16:50;;;;;;;1.02;0.70;;;21.90;41.30;;;;;;5137437;27;22804;-35
2024/02/05 07:19:16;;;;;;;1.52;0.90;;;21.90;41.30;;;;;;5133220;27;20086;-32
2024/02/05 07:21:42;;;;;;;0.75;0.70;;;21.90;41.30;;;;;;5137363;27;20050;-35
2024/02/05 07:24:08;;;;;;;0.68;0.52;;;21.90;41.40;;;;;;5136409;27;20023;-38
2024/02/05 07:26:35;;;;;;;0.90;0.70;;;21.90;41.40;;;;;;5136301;27;20031;-36
2024/02/05 07:29:01;;;;;;;0.88;0.57;;;21.90;41.40;;;;;;5135134;27;20037;-33
2024/02/05 07:31:27;;;;;;;0.68;0.60;;;21.90;41.40;;;;;;5134842;27;20038;-32
2024/02/05 07:33:53;;;;;;;0.95;0.80;;;21.90;41.40;;;;;;5139031;27;20016;-31
2024/02/05 07:36:20;;;;;;;0.88;0.60;;;21.90;41.40;;;;;;5132658;27;20662;-32
2024/02/05 07:38:46;;;;;;;1.30;0.88;;;21.90;41.50;;;;;;5130948;27;20111;-38
2024/02/05 07:41:12;;;;;;;0.93;0.65;;;21.90;41.50;;;;;;5139518;27;20023;-36
2024/02/05 07:43:39;;;;;;;0.70;0.60;;;21.90;41.40;;;;;;5140957;27;20038;-33
2024/02/05 07:46:06;;;;;;;2.20;0.65;;;21.90;41.40;;;;;;5118631;27;20023;-33
2024/02/05 07:48:32;;;;;;;1.63;0.60;;;21.90;41.50;;;;;;5135660;27;20856;-34
2024/02/05 07:51:00;;;;;;;1.40;0.73;;;21.90;41.60;;;;;;5131247;27;20084;-36
2024/02/05 07:53:26;;;;;;;0.70;0.65;;;21.90;41.60;;;;;;5137298;27;20095;-36
2024/02/05 07:55:52;;;;;;;0.57;0.57;;;21.90;41.60;;;;;;5136499;28;20023;-35
2024/02/05 07:58:19;;;;;;;1.00;0.60;;;21.90;41.60;;;;;;5134909;28;20019;-34
2024/02/05 08:00:45;;;;;;;1.25;0.80;;;21.90;41.50;;;;;;5132070;28;20042;-30
2024/02/05 08:03:11;;;;;;;0.73;0.65;;;21.90;41.50;;;;;;5130224;27;20031;-33
2024/02/05 08:05:37;;;;;;;2.17;0.68;;;21.90;41.50;;;;;;5139871;28;20135;-32
2024/02/05 08:08:04;;;;;;;1.70;0.50;;;21.90;41.50;;;;;;5134443;28;20066;-32
2024/02/05 08:10:30;;;;;;;0.50;0.50;;;21.90;41.50;;;;;;5140756;28;20087;-30
2024/02/05 08:12:56;;;;;;;1.10;0.60;;;21.90;41.50;;;;;;5135987;28;20030;-35
2024/02/05 08:15:22;;;;;;;0.63;0.50;;;21.90;41.50;;;;;;5132898;28;20024;-33
2024/02/05 08:17:48;;;;;;;0.70;0.52;;;21.90;41.50;;;;;;5124394;28;20127;-33
2024/02/05 08:20:14;;;;;;;0.75;0.70;;;21.90;41.50;;;;;;5131302;27;20088;-37
2024/02/05 08:22:41;;;;;;;0.93;0.50;;;21.90;41.50;;;;;;5136574;28;20031;-32
2024/02/05 08:25:07;;;;;;;0.60;0.60;;;21.90;41.50;;;;;;5131158;28;20075;-34
2024/02/05 08:27:33;;;;;;;0.57;0.47;;;21.90;41.50;;;;;;5132623;27;20035;-31
2024/02/05 08:30:00;;;;;;;0.95;0.70;;;21.90;41.50;;;;;;5131135;28;20039;-38
2024/02/05 08:32:26;;;;;;;0.80;0.60;;;21.90;41.50;;;;;;5137334;28;20024;-36
2024/02/05 08:34:53;;;;;;;0.50;0.47;;;21.90;41.50;;;;;;5133603;28;20392;-33
2024/02/05 08:37:19;;;;;;;0.70;0.50;;;21.90;41.50;;;;;;5131176;28;20208;-34
2024/02/05 08:39:46;;;;;;;0.70;0.60;;;21.90;41.50;;;;;;5129206;28;20702;-34
2024/02/05 08:42:12;;;;;;;1.02;0.93;;;21.90;41.50;;;;;;5135024;27;20059;-31
2024/02/05 08:44:38;;;;;;;0.80;0.70;;;21.90;41.50;;;;;;5125912;28;20045;-35
2024/02/05 08:47:04;;;;;;;1.00;0.60;;;21.90;41.50;;;;;;5135779;28;20027;-37
2024/02/05 08:49:30;;;;;;;0.70;0.40;;;21.90;41.50;;;;;;5139932;28;20023;-39
2024/02/05 08:51:56;;;;;;;0.77;0.60;;;21.90;41.60;;;;;;5134795;28;20032;-33
2024/02/05 08:54:23;;;;;;;1.90;0.50;;;21.90;41.60;;;;;;5081721;27;1648807;-35
2024/02/05 08:56:49;;;;;;;1.27;0.60;;;21.90;41.60;;;;;;5132294;27;20038;-37
2024/02/05 08:59:15;;;;;;;0.60;0.60;;;22.00;41.60;;;;;;5132461;27;20027;-36
2024/02/05 09:01:42;;;;;;;1.15;0.80;;;22.00;41.60;;;;;;5132518;27;20115;-35
2024/02/05 09:04:08;;;;;;;0.60;0.45;;;21.90;41.60;;;;;;5134499;27;20035;-33
2024/02/05 09:06:34;;;;;;;0.85;0.50;;;21.90;41.60;;;;;;5128259;27;20032;-36
2024/02/05 09:09:00;;;;;;;0.60;0.60;;;21.90;41.60;;;;;;5135550;27;20080;-32
2024/02/05 09:11:31;;;;;;;0.80;0.50;;;21.90;41.60;;;;;;5132132;27;20035;-34
2024/02/05 09:13:58;;;;;;;1.73;0.60;;;22.00;41.60;;;;;;5129232;27;20099;-36
2024/02/05 09:16:24;;;;;;;0.80;0.70;;;22.00;41.60;;;;;;5134279;27;20062;-37
2024/02/05 09:18:50;;;;;;;0.65;0.50;;;21.90;41.60;;;;;;5126719;27;20157;-36
2024/02/05 09:21:16;;;;;;;0.73;0.63;;;21.90;41.60;;;;;;5131447;27;20056;-39
2024/02/05 09:23:43;;;;;;;1.20;0.77;;;21.90;41.60;;;;;;5137615;27;20057;-38
2024/02/05 09:26:09;;;;;;;0.85;0.60;;;22.00;41.60;;;;;;5141811;27;20055;-32
2024/02/05 09:28:36;;;;;;;1.70;0.70;;;22.00;41.60;;;;;;5139136;27;20055;-35
2024/02/05 09:31:04;;;;;;;1.00;0.60;;;22.00;41.70;;;;;;5137603;27;20056;-35
2024/02/05 09:33:30;;;;;;;0.70;0.55;;;21.90;41.90;;;;;;5126866;27;20068;-37
2024/02/05 09:35:57;;;;;;;0.52;0.50;;;21.90;41.70;;;;;;5133956;27;20063;-36
2024/02/05 09:38:23;;;;;;;0.40;0.40;;;22.00;41.70;;;;;;5126222;27;20042;-36
2024/02/05 09:40:51;;;;;;;1.13;0.50;;;22.00;41.70;;;;;;5131215;27;20118;-35
2024/02/05 09:43:17;;;;;;;0.50;0.50;;;22.00;41.70;;;;;;5126755;27;20023;-34
2024/02/05 09:45:45;;;;;;;0.65;0.50;;;22.00;41.60;;;;;;5136684;27;20035;-33
2024/02/05 09:48:11;;;;;;;0.70;0.40;;;21.90;41.60;;;;;;5097871;28;20094;-36
2024/02/05 09:50:38;;;;;;;0.70;0.40;;;21.90;41.60;;;;;;5119288;27;20039;-34
2024/02/05 09:53:04;;;;;;;0.70;0.50;;;22.00;41.70;;;;;;5120725;27;20043;-36
2024/02/05 09:55:30;;;;;;;0.70;0.50;;;22.00;41.70;;;;;;5133932;27;20035;-36
2024/02/05 09:57:56;;;;;;;0.70;0.50;;;22.00;41.70;;;;;;5119920;27;20027;-36
2024/02/05 10:00:23;;;;;;;1.13;0.40;;;21.90;41.70;;;;;;5106342;27;20027;-39
2024/02/05 10:02:49;;;;;;;0.82;0.50;;;21.90;41.70;;;;;;5115101;27;20271;-35
2024/02/05 10:05:17;;;;;;;0.95;0.77;;;21.90;41.80;;;;;;5115477;28;20070;-32
2024/02/05 10:07:50;;;;;;;0.60;0.52;;;21.90;41.90;;;;;;5151362;27;20583;-37
2024/02/05 10:10:17;;;;;;;0.52;0.50;;;21.90;41.90;;;;;;5129305;27;20085;-38
2024/02/05 10:12:44;;;;;;;0.73;0.50;;;21.90;41.90;;;;;;5132258;27;20057;-34
2024/02/05 10:15:10;;;;;;;0.65;0.52;;;21.90;41.90;;;;;;5109154;28;20036;-37
2024/02/05 10:17:37;;;;;;;1.08;0.50;;;21.80;41.90;;;;;;5148040;27;20039;-36
2024/02/05 10:20:04;;;;;;;1.02;0.60;;;21.80;42.00;;;;;;5128705;27;20057;-36
2024/02/05 10:22:31;;;;;;;0.45;0.40;;;21.90;42.00;;;;;;5131088;27;20459;-39
2024/02/05 10:24:59;;;;;;;0.70;0.50;;;21.90;42.00;;;;;;5105443;28;20507;-35
2024/02/05 10:27:25;;;;;;;0.70;0.43;;;21.90;42.00;;;;;;5129223;27;20034;-39
2024/02/05 10:30:00;;;;;;;0.57;0.57;;;21.80;41.90;;;;;;5127132;28;20028;-37
2024/02/05 10:32:26;;;;;;;0.60;0.50;;;21.80;42.00;;;;;;5126221;27;20059;-33
2024/02/05 10:34:52;;;;;;;0.60;0.40;;;21.80;42.00;;;;;;5136129;27;20074;-32
2024/02/05 10:37:22;;;;;;;0.50;0.40;;;21.90;42.10;;;;;;5131722;28;20049;-30
2024/02/05 10:39:48;;;;;;;1.13;0.50;;;21.90;42.10;;;;;;5124768;28;20019;-38
2024/02/05 10:42:15;;;;;;;0.60;0.50;;;21.90;42.10;;;;;;5122552;28;20039;-36
2024/02/05 10:44:42;;;;;;;0.77;0.63;;;21.80;42.00;;;;;;5138281;28;20027;-36
2024/02/05 10:47:09;;;;;;;1.13;0.50;;;21.80;42.10;;;;;;5129694;28;20119;-36
2024/02/05 10:49:35;;;;;;;0.90;0.55;;;21.80;42.10;;;;;;5115245;28;20069;-34
2024/02/05 10:52:02;;;;;;;0.40;0.40;;;21.90;42.10;;;;;;5133654;27;20040;-34
2024/02/05 10:54:28;;;;;;;0.85;0.50;;;21.90;42.10;;;;;;5103735;28;20043;-33
2024/02/05 10:56:54;;;;;;;0.70;0.60;;;21.90;42.20;;;;;;5102241;28;20036;-44
2024/02/05 10:59:22;;;;;;;0.70;0.53;;;21.80;42.20;;;;;;5128924;27;20155;-36
2024/02/05 11:01:49;;;;;;;0.90;0.50;;;21.80;42.20;;;;;;5137285;28;20030;-34
2024/02/05 11:04:17;;;;;;;0.70;0.57;;;21.90;42.20;;;;;;5132150;28;20031;-35
2024/02/05 11:06:45;;;;;;;;;;;21.90;42.70;;;;;;5122489;28;20084;-35
2024/02/05 11:09:11;;;;;;;0.52;0.50;;;21.90;42.10;;;;;;5132922;28;19922;-33
2024/02/05 11:11:40;;;;;;;0.40;0.40;;;21.80;42.10;;;;;;5117517;28;20060;-33
2024/02/05 11:14:08;;;;;;;1.90;0.45;;;21.80;42.10;;;;;;5098635;28;20020;-33
2024/02/05 11:16:37;;;;;;;0.57;0.40;;;21.80;42.10;;;;;;5116584;28;20083;-37
2024/02/05 11:19:04;;;;;;;0.52;0.43;;;21.80;42.10;;;;;;5112450;28;20027;-34
2024/02/05 11:21:39;;;;;;;0.63;0.55;;;21.90;42.10;;;;;;5126377;28;20494;-35
2024/02/05 11:24:05;;;;;;;0.75;0.50;;;21.90;42.10;;;;;;5097525;28;20539;-37
2024/02/05 11:26:32;;;;;;;0.67;0.50;;;21.80;42.00;;;;;;5117850;28;20118;-36
2024/02/05 11:28:58;;;;;;;0.60;0.45;;;21.80;42.10;;;;;;5117701;28;20027;-32
2024/02/05 11:31:26;;;;;;;0.63;0.55;;;21.80;42.10;;;;;;5129872;27;20812;-33
2024/02/05 11:34:02;;;;;;;0.90;0.50;;;21.80;42.10;;;;;;5136102;27;20032;-35
2024/02/05 11:36:28;;;;;;;0.85;0.63;;;21.90;42.10;;;;;;5114291;27;20038;-34
2024/02/05 11:39:02;;;;;;;0.77;0.40;;;21.80;42.00;;;;;;5132801;27;20035;-42
2024/02/05 11:41:28;;;;;;;0.77;0.52;;;21.80;42.00;;;;;;5133476;27;20023;-34
2024/02/05 11:44:11;;;;;;;0.50;0.50;;;21.80;42.00;;;;;;5131675;27;20038;-31
2024/02/05 11:46:40;;;;;;;0.65;0.50;;;21.80;42.10;;;;;;5134264;27;20733;-34
2024/02/05 11:49:06;;;;;;;0.55;0.40;;;21.80;42.00;;;;;;5115170;27;20023;-35
2024/02/05 11:51:32;;;;;;;0.65;0.50;;;21.90;42.10;;;;;;5133919;27;20092;-35
2024/02/05 11:53:59;;;;;;;0.50;0.40;;;21.90;42.10;;;;;;5135004;27;20047;-34
2024/02/05 11:56:25;;;;;;;0.65;0.50;;;21.80;42.00;;;;;;5134059;27;20027;-32
2024/02/05 11:58:51;;;;;;;0.57;0.53;;;21.80;42.00;;;;;;5137186;27;20075;-35
2024/02/05 12:01:17;;;;;;;0.63;0.50;;;21.80;42.10;;;;;;5129973;27;20023;-36
2024/02/05 12:03:47;;;;;;;0.65;0.40;;;21.80;42.10;;;;;;5135954;27;20543;-34
2024/02/05 12:06:16;;;;;;;0.57;0.40;;;21.90;42.10;;;;;;5135394;27;20027;-35
2024/02/05 12:08:42;;;;;;;1.17;0.60;;;21.90;42.10;;;;;;5132353;27;20031;-36
2024/02/05 12:11:09;;;;;;;0.45;0.30;;;21.80;42.00;;;;;;5117203;27;20051;-33
2024/02/05 12:13:35;;;;;;;0.40;0.32;;;21.80;42.00;;;;;;5134976;27;20027;-34
2024/02/05 12:16:11;;;;;;;0.60;0.45;;;21.80;42.10;;;;;;5130226;27;20081;-36
2024/02/05 12:18:38;;;;;;;0.50;0.40;;;21.80;42.10;;;;;;5130379;27;20031;-32
2024/02/05 12:21:07;;;;;;;0.40;0.40;;;21.90;42.10;;;;;;5129010;27;20032;-37
2024/02/05 12:23:35;;;;;;;0.65;0.50;;;21.80;42.00;;;;;;5150930;27;20079;-36
2024/02/05 12:26:02;;;;;;;0.75;0.55;;;21.80;42.00;;;;;;5137042;27;20092;-35
2024/02/05 12:28:29;;;;;;;0.40;0.40;;;21.80;42.10;;;;;;5125488;27;20103;-35
2024/02/05 12:30:58;;;;;;;0.30;0.30;;;21.80;42.10;;;;;;5132952;27;20072;-33
2024/02/05 12:33:26;;;;;;;0.70;0.40;;;21.80;42.10;;;;;;5144002;27;20019;-34
2024/02/05 12:35:56;;;;;;;;;;;21.90;42.20;;;;;;5133385;27;20034;-34
2024/02/05 12:38:22;;;;;;;0.50;0.43;;;21.90;42.10;;;;;;5123266;27;19918;-34
2024/02/05 12:40:49;;;;;;;0.50;0.43;;;21.80;42.10;;;;;;5118985;27;20034;-36
2024/02/05 12:43:15;;;;;;;0.57;0.50;;;21.80;42.10;;;;;;5110729;27;20053;-35
2024/02/05 12:45:41;;;;;;;0.60;0.47;;;21.80;42.20;;;;;;5110246;27;20036;-32